Time;durP1;ratioP1;P1;durP2;ratioP2;P2;SDS_P1;SDS_P2;PMS_P1;PMS_P2;Temp;Humidity;BMP_temperature;BMP_pressure;BME280_temperature;BME280_humidity;BME280_pressure;Samples;Min_cycle;Max_cycle;Signal;HPM_P1;HPM_P2
2023/02/01 00:01:40;;;;;;;6.33;5.73;;;;;;;1.21;100.00;97354.03;5011961;28;20740;-64
2023/02/01 00:04:08;;;;;;;6.03;5.53;;;;;;;1.22;100.00;97355.69;5051714;28;20605;-65
2023/02/01 00:06:36;;;;;;;5.63;5.13;;;;;;;1.23;100.00;97348.69;5058745;28;20207;-65
2023/02/01 00:09:04;;;;;;;6.90;6.03;;;;;;;1.25;100.00;97352.84;5049055;28;20210;-63
2023/02/01 00:11:31;;;;;;;5.37;4.97;;;;;;;1.24;100.00;97332.91;5049201;28;20225;-62
2023/02/01 00:13:59;;;;;;;6.13;5.53;;;;;;;1.23;100.00;97343.47;5064019;28;20226;-63
2023/02/01 00:16:28;;;;;;;5.63;5.13;;;;;;;1.27;100.00;97350.09;5033219;28;20211;-64
2023/02/01 00:18:59;;;;;;;5.80;5.27;;;;;;;1.35;100.00;97332.06;5055089;28;20206;-62
2023/02/01 00:21:28;;;;;;;5.00;4.60;;;;;;;1.36;100.00;97340.72;5069029;28;20504;-65
2023/02/01 00:23:56;;;;;;;5.63;5.10;;;;;;;1.35;100.00;97342.50;5048827;28;20309;-62
2023/02/01 00:26:27;;;;;;;4.80;4.50;;;;;;;1.38;100.00;97341.44;5066886;28;20212;-63
2023/02/01 00:28:55;;;;;;;4.63;4.23;;;;;;;1.36;100.00;97338.94;5049668;28;20310;-63
2023/02/01 00:31:23;;;;;;;4.80;4.50;;;;;;;1.40;100.00;97345.59;5037508;28;21050;-65
2023/02/01 00:33:51;;;;;;;4.00;3.70;;;;;;;1.42;100.00;97327.16;5052897;28;20213;-63
2023/02/01 00:36:18;;;;;;;4.20;3.83;;;;;;;1.41;100.00;97334.19;5063974;28;20190;-63
2023/02/01 00:38:47;;;;;;;4.00;3.80;;;;;;;1.46;100.00;97344.25;5059944;28;20209;-64
2023/02/01 00:41:16;;;;;;;3.53;3.43;;;;;;;1.49;100.00;97322.28;5070851;28;20246;-65
2023/02/01 00:43:45;;;;;;;4.37;4.07;;;;;;;1.52;100.00;97329.88;5048026;28;20233;-65
2023/02/01 00:46:14;;;;;;;4.60;4.20;;;;;;;1.51;100.00;97321.19;5027882;28;21663;-64
2023/02/01 00:48:42;;;;;;;4.50;3.93;;;;;;;1.54;100.00;97322.75;5069398;28;20202;-65
2023/02/01 00:51:11;;;;;;;3.90;3.60;;;;;;;1.51;100.00;97308.16;5041817;28;20282;-64
2023/02/01 00:53:39;;;;;;;4.50;4.20;;;;;;;1.53;100.00;97318.47;5055533;28;20207;-64
2023/02/01 00:56:09;;;;;;;4.60;4.20;;;;;;;1.52;100.00;97314.22;5070624;28;20206;-63
2023/02/01 00:58:36;;;;;;;4.60;4.30;;;;;;;1.52;100.00;97307.22;5070769;28;20695;-64
2023/02/01 01:01:05;;;;;;;5.13;4.70;;;;;;;1.54;100.00;97312.31;5040813;28;20237;-63
2023/02/01 01:03:34;;;;;;;4.53;4.23;;;;;;;1.61;100.00;97320.47;5034166;28;20206;-64
2023/02/01 01:06:04;;;;;;;4.07;3.67;;;;;;;1.58;100.00;97311.94;5045656;28;20206;-62
2023/02/01 01:08:31;;;;;;;4.73;4.43;;;;;;;1.57;100.00;97312.06;5045134;28;20203;-63
2023/02/01 01:10:59;;;;;;;5.10;4.57;;;;;;;1.58;100.00;97313.72;5068742;28;20215;-63
2023/02/01 01:13:27;;;;;;;4.77;4.47;;;;;;;1.62;100.00;97322.13;5065823;28;20202;-64
2023/02/01 01:15:55;;;;;;;4.47;4.10;;;;;;;1.64;100.00;97315.00;5045894;28;20210;-62
2023/02/01 01:18:22;;;;;;;6.13;4.17;;;;;;;1.64;100.00;97320.22;5035822;28;20209;-64
2023/02/01 01:20:50;;;;;;;5.27;4.83;;;;;;;1.62;100.00;97322.97;5045009;28;20226;-63
2023/02/01 01:23:18;;;;;;;6.30;5.83;;;;;;;1.67;100.00;97320.78;5063238;28;20186;-64
2023/02/01 01:25:45;;;;;;;5.77;5.27;;;;;;;1.67;100.00;97317.38;5050653;28;20217;-65
2023/02/01 01:28:13;;;;;;;5.60;5.17;;;;;;;1.66;100.00;97324.38;5068497;28;20942;-64
2023/02/01 01:30:42;;;;;;;5.93;5.43;;;;;;;1.66;100.00;97320.94;5043394;28;20241;-65
2023/02/01 01:33:09;;;;;;;6.70;5.90;;;;;;;1.63;100.00;97321.19;5035218;28;20854;-65
2023/02/01 01:35:37;;;;;;;5.67;4.93;;;;;;;1.68;100.00;97311.19;5065720;28;20197;-65
2023/02/01 01:38:04;;;;;;;6.30;5.20;;;;;;;1.70;100.00;97330.19;5042900;28;20199;-63
2023/02/01 01:40:32;;;;;;;5.80;5.20;;;;;;;1.66;100.00;97313.09;5051351;28;20233;-66
2023/02/01 01:43:00;;;;;;;5.63;5.13;;;;;;;1.67;100.00;97314.75;5060266;28;20210;-63
2023/02/01 01:45:29;;;;;;;6.07;5.57;;;;;;;1.70;100.00;97312.72;5042977;28;20202;-65
2023/02/01 01:48:00;;;;;;;6.07;5.57;;;;;;;1.71;100.00;97309.16;5049138;28;20202;-63
2023/02/01 01:50:30;;;;;;;6.10;5.50;;;;;;;1.71;100.00;97313.56;5062241;28;20229;-65
2023/02/01 01:53:00;;;;;;;6.17;5.57;;;;;;;1.74;100.00;97313.31;5046305;28;20226;-63
2023/02/01 01:55:28;;;;;;;6.60;6.00;;;;;;;1.73;100.00;97309.88;5048481;28;20213;-65
2023/02/01 01:58:00;;;;;;;6.03;5.63;;;;;;;1.72;100.00;97291.69;5072194;28;20312;-62
2023/02/01 02:00:28;;;;;;;6.87;6.37;;;;;;;1.69;100.00;97298.00;5040590;28;20919;-65
2023/02/01 02:02:59;;;;;;;6.80;6.30;;;;;;;1.74;100.00;97292.41;5071274;28;20198;-62
2023/02/01 02:05:28;;;;;;;6.23;5.73;;;;;;;1.76;100.00;97287.06;5042329;28;20206;-65
2023/02/01 02:08:00;;;;;;;6.87;6.37;;;;;;;1.73;100.00;97288.97;5062309;28;20735;-62
2023/02/01 02:13:10;;;;;;;5.83;5.30;;;;;;;1.76;100.00;97287.06;5072241;28;20218;-65
2023/02/01 02:15:44;;;;;;;5.80;5.40;;;;;;;1.75;100.00;97282.78;5070264;28;20212;-64
2023/02/01 02:18:16;;;;;;;6.43;5.83;;;;;;;1.77;100.00;97292.16;5045632;28;20883;-65
2023/02/01 02:20:54;;;;;;;6.53;6.03;;;;;;;1.73;100.00;97282.91;5030926;28;20271;-63
2023/02/01 02:23:43;;;;;;;6.67;6.07;;;;;;;1.73;100.00;97282.91;5047503;28;20233;-61
2023/02/01 02:26:24;;;;;;;6.03;5.43;;;;;;;1.75;100.00;97273.16;5047143;28;20201;-64
2023/02/01 02:29:10;;;;;;;6.03;5.63;;;;;;;1.78;100.00;97277.31;5066431;28;20281;-62
2023/02/01 02:31:48;;;;;;;5.90;5.40;;;;;;;1.78;100.00;97270.28;5046860;28;20202;-65
2023/02/01 02:34:21;;;;;;;6.20;5.60;;;;;;;1.79;100.00;97258.88;5073201;28;20698;-64
2023/02/01 02:36:57;;;;;;;5.57;5.17;;;;;;;1.71;100.00;97266.53;5032281;28;20889;-63
2023/02/01 02:39:31;;;;;;;5.40;5.00;;;;;;;1.67;100.00;97286.03;5052183;28;20229;-63
2023/02/01 02:47:44;;;;;;;5.80;5.33;;;;;;;1.50;100.00;97284.78;5052832;28;20213;-64
2023/02/01 03:04:17;;;;;;;4.10;3.90;;;;;;;1.39;100.00;97260.38;5035625;28;20209;-63
2023/02/01 03:06:46;;;;;;;4.70;4.33;;;;;;;1.43;100.00;97271.38;5030342;28;20309;-65
2023/02/01 03:09:19;;;;;;;4.23;3.83;;;;;;;1.30;100.00;97250.66;5069105;28;20597;-64
2023/02/01 03:14:34;;;;;;;5.07;4.47;;;;;;;1.48;100.00;97258.78;5064102;28;20941;-65
2023/02/01 03:17:05;;;;;;;4.93;4.53;;;;;;;1.49;100.00;97254.41;5071458;28;20770;-64
2023/02/01 03:19:35;;;;;;;5.30;4.40;;;;;;;1.51;100.00;97255.91;5045130;28;20229;-64
2023/02/01 03:22:06;;;;;;;4.10;3.80;;;;;;;1.52;100.00;97257.59;5028075;28;21320;-62
2023/02/01 03:24:35;;;;;;;4.93;4.53;;;;;;;1.53;100.00;97253.19;5071416;28;20209;-64
2023/02/01 03:27:06;;;;;;;5.40;5.10;;;;;;;1.50;100.00;97238.59;5026935;28;20198;-63
2023/02/01 03:29:39;;;;;;;4.63;4.23;;;;;;;1.51;100.00;97242.03;5069555;28;20305;-65
2023/02/01 03:32:07;;;;;;;4.93;4.53;;;;;;;1.45;100.00;97232.91;5054921;28;20225;-65
2023/02/01 03:34:34;;;;;;;4.97;4.50;;;;;;;1.49;100.00;97238.72;5016005;28;20820;-64
2023/02/01 03:37:05;;;;;;;4.23;4.00;;;;;;;1.51;100.00;97236.81;5063529;28;20203;-65
2023/02/01 03:39:36;;;;;;;4.33;4.03;;;;;;;1.53;100.00;97229.69;5016458;28;20225;-62
2023/02/01 03:42:05;;;;;;;5.70;5.28;;;;;;;1.50;100.00;97224.72;5046216;28;20495;-65
2023/02/01 03:44:36;;;;;;;5.13;4.57;;;;;;;1.51;100.00;97224.56;5045766;28;20501;-61
2023/02/01 03:47:07;;;;;;;5.28;4.88;;;;;;;1.52;100.00;97222.81;5059837;28;20447;-66
2023/02/01 03:49:36;;;;;;;5.80;5.30;;;;;;;1.53;100.00;97227.91;5035320;28;20367;-65
2023/02/01 03:52:07;;;;;;;5.33;4.93;;;;;;;1.47;100.00;97219.75;5047550;28;20198;-63
2023/02/01 03:54:36;;;;;;;4.57;4.27;;;;;;;1.41;100.00;97226.28;5027652;28;20265;-64
2023/02/01 03:57:07;;;;;;;5.65;4.82;;;;;;;1.38;100.00;97237.00;5011603;28;1123518;-63
2023/02/01 03:59:35;;;;;;;5.30;4.90;;;;;;;1.28;100.00;97242.97;5047726;28;20554;-65
2023/02/01 04:02:02;;;;;;;5.50;5.10;;;;;;;1.24;100.00;97243.31;5065854;28;20404;-64
2023/02/01 04:04:30;;;;;;;5.20;4.80;;;;;;;1.19;100.00;97250.69;5047338;28;20202;-60
2023/02/01 04:06:58;;;;;;;5.77;5.30;;;;;;;1.21;100.00;97248.78;5066076;28;20198;-63
2023/02/01 04:09:26;;;;;;;5.23;4.83;;;;;;;1.20;100.00;97249.75;5027641;28;20575;-61
2023/02/01 04:11:54;;;;;;;5.60;5.10;;;;;;;1.26;100.00;97251.84;5043292;28;20714;-65
2023/02/01 04:14:22;;;;;;;5.30;4.83;;;;;;;1.22;100.00;97245.22;5045094;28;20242;-62
2023/02/01 04:16:49;;;;;;;5.67;5.27;;;;;;;1.15;100.00;97248.34;5062404;28;20368;-65
2023/02/01 04:19:17;;;;;;;5.60;5.10;;;;;;;1.14;100.00;97251.91;5062742;28;20237;-60
2023/02/01 04:21:44;;;;;;;5.67;5.17;;;;;;;1.12;100.00;97253.81;5053765;28;20409;-63
2023/02/01 04:24:12;;;;;;;5.50;5.00;;;;;;;1.15;100.00;97257.97;5024976;28;20597;-65
2023/02/01 04:26:41;;;;;;;5.47;4.97;;;;;;;1.13;100.00;97254.63;5066735;28;20237;-64
2023/02/01 04:29:09;;;;;;;5.37;4.97;;;;;;;1.12;100.00;97242.53;5031357;28;20234;-64
2023/02/01 04:31:37;;;;;;;6.53;5.27;;;;;;;1.10;100.00;97231.38;5062298;28;20193;-65
2023/02/01 04:34:05;;;;;;;6.00;5.50;;;;;;;1.11;100.00;97236.50;5071817;28;20253;-62
2023/02/01 04:36:32;;;;;;;5.30;4.90;;;;;;;1.10;100.00;97229.59;5037732;28;20327;-62
2023/02/01 04:39:00;;;;;;;5.93;5.37;;;;;;;1.11;100.00;97223.44;5028615;28;20535;-65
2023/02/01 04:41:27;;;;;;;6.33;5.87;;;;;;;1.14;100.00;97225.00;5068917;28;20195;-62
2023/02/01 04:43:56;;;;;;;6.30;5.90;;;;;;;1.13;100.00;97212.84;5056651;28;20218;-65
2023/02/01 04:46:24;;;;;;;5.97;5.37;;;;;;;1.14;100.00;97217.97;5045149;28;20326;-62
2023/02/01 04:48:52;;;;;;;5.47;5.13;;;;;;;1.15;100.00;97217.00;5065584;28;20850;-64
2023/02/01 04:51:20;;;;;;;5.83;5.33;;;;;;;1.14;100.00;97214.53;5062828;28;20276;-62
2023/02/01 04:53:47;;;;;;;6.17;5.43;;;;;;;1.21;100.00;97212.25;5060316;28;20447;-67
2023/02/01 04:56:15;;;;;;;6.50;6.00;;;;;;;1.22;100.00;97208.69;5026404;28;20692;-63
2023/02/01 04:58:42;;;;;;;5.73;5.23;;;;;;;1.25;100.00;97213.66;5069550;28;20330;-64
2023/02/01 05:01:11;;;;;;;7.57;5.77;;;;;;;1.22;100.00;97200.84;5034118;28;20233;-66
2023/02/01 05:03:39;;;;;;;6.40;5.90;;;;;;;1.27;100.00;97207.38;5059663;28;20384;-64
2023/02/01 05:06:07;;;;;;;6.30;5.80;;;;;;;1.30;100.00;97214.09;5067635;28;20616;-63
2023/02/01 05:08:34;;;;;;;5.77;5.33;;;;;;;1.33;100.00;97202.59;5035377;28;20745;-66
2023/02/01 05:11:05;;;;;;;5.77;5.30;;;;;;;1.47;100.00;97184.00;5028884;28;20320;-66
2023/02/01 05:13:50;;;;;;;5.80;5.30;;;;;;;1.42;100.00;97191.41;5067254;28;20857;-64
2023/02/01 05:16:19;;;;;;;6.40;5.80;;;;;;;1.40;100.00;97204.59;5030753;28;20201;-62
2023/02/01 05:18:46;;;;;;;5.50;5.10;;;;;;;1.42;100.00;97194.00;5069632;28;20412;-65
2023/02/01 05:21:14;;;;;;;6.33;5.83;;;;;;;1.42;100.00;97199.22;5065316;28;20226;-63
2023/02/01 05:26:24;;;;;;;5.83;5.33;;;;;;;1.44;100.00;97185.09;5006782;28;20206;-64
2023/02/01 05:28:52;;;;;;;6.23;5.73;;;;;;;1.42;100.00;97184.41;5068553;28;20618;-65
2023/02/01 05:31:21;;;;;;;5.87;5.37;;;;;;;1.51;100.00;97172.34;5032411;28;20234;-63
2023/02/01 05:33:49;;;;;;;6.13;5.63;;;;;;;1.51;100.00;97177.56;5065740;28;20535;-67
2023/02/01 05:36:17;;;;;;;5.63;5.10;;;;;;;1.51;100.00;97172.34;5065931;28;20198;-64
2023/02/01 05:38:44;;;;;;;4.93;4.53;;;;;;;1.51;100.00;97171.53;5065345;28;20237;-66
2023/02/01 05:41:12;;;;;;;5.10;4.70;;;;;;;1.52;100.00;97174.03;5043659;28;20234;-63
2023/02/01 05:43:39;;;;;;;5.90;5.30;;;;;;;1.48;100.00;97159.56;5023203;28;20260;-64
2023/02/01 05:46:07;;;;;;;4.80;4.50;;;;;;;1.48;100.00;97166.56;5049411;28;20206;-64
2023/02/01 05:48:36;;;;;;;5.13;4.63;;;;;;;1.45;100.00;97144.13;5055704;28;20213;-64
2023/02/01 05:51:03;;;;;;;4.60;4.23;;;;;;;1.49;100.00;97149.94;5067479;28;20475;-66
2023/02/01 05:53:31;;;;;;;5.17;4.67;;;;;;;1.48;100.00;97158.75;5065381;28;20241;-64
2023/02/01 05:55:59;;;;;;;5.10;4.70;;;;;;;1.48;100.00;97143.06;5042166;28;20229;-63
2023/02/01 05:58:26;;;;;;;5.17;4.77;;;;;;;1.46;100.00;97147.59;5024547;28;20237;-65
2023/02/01 06:00:54;;;;;;;5.53;4.67;;;;;;;1.44;100.00;97145.94;5073446;28;21774;-66
2023/02/01 06:03:22;;;;;;;4.30;4.00;;;;;;;1.46;100.00;97152.81;5048881;28;20198;-66
2023/02/01 06:05:50;;;;;;;4.83;4.33;;;;;;;1.48;100.00;97153.50;5068027;28;20570;-63
2023/02/01 06:08:18;;;;;;;5.17;4.67;;;;;;;1.43;100.00;97167.78;5063420;28;20213;-66
2023/02/01 06:10:46;;;;;;;5.43;4.23;;;;;;;1.36;100.00;97171.00;5039707;28;20228;-64
2023/02/01 06:13:14;;;;;;;5.30;4.23;;;;;;;1.33;100.00;97172.13;5066511;28;20198;-66
2023/02/01 06:15:43;;;;;;;5.00;4.60;;;;;;;1.32;100.00;97180.88;5029177;28;20221;-64
2023/02/01 06:18:11;;;;;;;4.67;4.27;;;;;;;1.29;100.00;97187.19;5049950;28;20234;-66
2023/02/01 06:20:39;;;;;;;5.10;4.70;;;;;;;1.26;100.00;97189.22;5059106;28;20222;-64
2023/02/01 06:23:08;;;;;;;5.13;4.63;;;;;;;1.13;100.00;97192.81;5063354;28;20589;-66
2023/02/01 06:25:37;;;;;;;5.70;4.13;;;;;;;0.97;100.00;97201.06;5058707;28;20198;-68
2023/02/01 06:28:05;;;;;;;4.47;4.10;;;;;;;0.92;100.00;97189.31;5058588;28;20301;-68
2023/02/01 06:30:33;;;;;;;4.60;4.27;;;;;;;0.82;100.00;97205.72;5020702;28;20226;-65
2023/02/01 06:33:01;;;;;;;4.67;4.37;;;;;;;0.80;100.00;97212.84;5052025;28;20985;-66
2023/02/01 06:35:28;;;;;;;4.70;3.90;;;;;;;0.70;100.00;97198.88;5065587;28;20218;-65
2023/02/01 06:37:57;;;;;;;4.27;3.87;;;;;;;0.57;100.00;97193.78;5063771;28;22272;-65
2023/02/01 06:40:26;;;;;;;3.30;3.00;;;;;;;0.38;100.00;97210.03;5069546;28;20219;-67
2023/02/01 06:42:54;;;;;;;3.60;3.40;;;;;;;0.33;100.00;97206.97;5042002;28;20260;-66
2023/02/01 06:45:21;;;;;;;3.50;3.30;;;;;;;0.12;100.00;97198.09;5033391;28;20199;-67
2023/02/01 06:47:49;;;;;;;2.77;2.60;;;;;;;0.05;100.00;97203.88;5068097;28;20197;-65
2023/02/01 06:50:17;;;;;;;3.60;3.30;;;;;;;0.04;100.00;97202.22;5053843;28;20634;-66
2023/02/01 06:52:44;;;;;;;3.60;3.30;;;;;;;0.01;100.00;97208.50;5062543;28;20495;-65
2023/02/01 06:55:12;;;;;;;3.20;3.00;;;;;;;0.01;100.00;97220.69;5074102;28;20218;-66
2023/02/01 06:57:41;;;;;;;3.33;3.13;;;;;;;-0.08;100.00;97206.56;5052559;28;20422;-66
2023/02/01 07:00:10;;;;;;;3.07;2.87;;;;;;;-0.19;100.00;97190.00;5028008;28;20431;-65
2023/02/01 07:02:39;;;;;;;3.03;2.83;;;;;;;-0.21;100.00;97191.03;5070152;28;20198;-63
2023/02/01 07:05:07;;;;;;;2.73;2.53;;;;;;;-0.18;100.00;97202.06;5046197;28;20658;-65
2023/02/01 07:07:34;;;;;;;2.97;2.70;;;;;;;-0.11;100.00;97204.22;5067021;28;20220;-64
2023/02/01 07:10:02;;;;;;;2.90;2.70;;;;;;;-0.05;100.00;97203.75;5066882;28;20252;-66
2023/02/01 07:12:31;;;;;;;2.50;2.40;;;;;;;-0.05;100.00;97195.91;5069373;28;20266;-64
2023/02/01 07:15:01;;;;;;;2.77;2.57;;;;;;;-0.01;100.00;97197.34;5057538;28;21560;-66
2023/02/01 07:17:29;;;;;;;2.57;2.47;;;;;;;-0.01;100.00;97190.38;5029233;28;20827;-64
2023/02/01 07:19:58;;;;;;;2.17;2.07;;;;;;;0.00;100.00;97178.19;5052123;28;20666;-66
2023/02/01 07:22:26;;;;;;;1.90;1.80;;;;;;;-0.02;100.00;97182.66;5067735;28;20705;-67
2023/02/01 07:24:53;;;;;;;2.73;2.00;;;;;;;0.06;100.00;97193.34;5069114;28;20221;-65
2023/02/01 07:27:21;;;;;;;2.67;2.47;;;;;;;0.07;100.00;97189.78;5068312;28;20577;-66
2023/02/01 07:29:48;;;;;;;2.63;2.53;;;;;;;0.17;100.00;97192.50;5050970;28;20237;-66
2023/02/01 07:32:17;;;;;;;2.50;2.40;;;;;;;0.11;100.00;97200.78;5025935;28;20713;-65
2023/02/01 07:34:45;;;;;;;5.23;3.10;;;;;;;0.16;100.00;97201.25;5049182;28;20229;-64
2023/02/01 07:37:13;;;;;;;3.00;2.80;;;;;;;0.06;100.00;97200.31;5064160;28;20205;-66
2023/02/01 07:39:40;;;;;;;2.87;2.77;;;;;;;0.12;100.00;97207.66;5066724;28;20513;-64
2023/02/01 07:42:08;;;;;;;2.73;2.63;;;;;;;0.14;100.00;97192.75;5067417;28;20194;-66
2023/02/01 07:44:35;;;;;;;4.10;3.80;;;;;;;0.10;100.00;97196.53;5053211;28;20669;-64
2023/02/01 07:47:03;;;;;;;3.40;3.20;;;;;;;0.07;100.00;97197.63;5070343;28;20198;-65
2023/02/01 07:49:32;;;;;;;3.40;3.20;;;;;;;0.10;100.00;97204.34;5027522;28;20593;-64
2023/02/01 07:51:59;;;;;;;3.70;3.40;;;;;;;0.13;100.00;97196.28;5044621;28;20602;-65
2023/02/01 07:54:27;;;;;;;3.93;3.67;;;;;;;0.15;100.00;97197.00;5073403;28;20194;-67
2023/02/01 07:56:55;;;;;;;4.73;4.33;;;;;;;0.11;100.00;97187.75;5066369;28;20346;-67
2023/02/01 07:59:22;;;;;;;3.90;3.60;;;;;;;0.12;100.00;97187.66;5071933;28;20508;-65
2023/02/01 08:01:49;;;;;;;4.13;3.87;;;;;;;0.12;100.00;97190.28;5039907;28;20415;-65
2023/02/01 08:04:16;;;;;;;3.90;3.60;;;;;;;0.26;100.00;97196.19;5031018;28;20245;-65
2023/02/01 08:06:46;;;;;;;4.23;3.90;;;;;;;0.27;100.00;97197.84;5045539;28;20221;-64
2023/02/01 08:09:13;;;;;;;3.70;3.40;;;;;;;0.23;100.00;97196.41;5072103;28;20309;-64
2023/02/01 08:11:41;;;;;;;4.53;4.23;;;;;;;0.22;100.00;97197.38;5063172;28;20683;-64
2023/02/01 08:14:08;;;;;;;4.50;4.10;;;;;;;0.24;100.00;97198.06;5070820;28;20685;-66
2023/02/01 08:16:37;;;;;;;4.00;3.70;;;;;;;0.24;100.00;97203.28;5048700;28;20225;-63
2023/02/01 08:19:05;;;;;;;4.63;4.23;;;;;;;0.25;100.00;97208.41;5025315;28;20699;-66
2023/02/01 08:21:37;;;;;;;3.70;3.50;;;;;;;0.32;100.00;97210.53;5057116;28;20573;-65
2023/02/01 08:24:07;;;;;;;4.87;4.47;;;;;;;0.45;100.00;97199.97;5061626;28;20206;-66
2023/02/01 08:26:35;;;;;;;4.40;4.10;;;;;;;0.52;100.00;97194.16;5067985;28;20212;-64
2023/02/01 08:29:05;;;;;;;5.03;4.63;;;;;;;0.67;100.00;97192.09;5066897;28;21133;-65
2023/02/01 08:31:32;;;;;;;4.63;4.30;;;;;;;0.79;100.00;97185.09;5043655;28;20207;-64
2023/02/01 08:34:03;;;;;;;4.87;4.47;;;;;;;0.92;100.00;97195.38;5023028;28;21436;-65
2023/02/01 08:36:31;;;;;;;5.50;4.97;;;;;;;1.06;100.00;97185.59;5065035;28;20700;-64
2023/02/01 08:38:59;;;;;;;5.03;4.57;;;;;;;1.14;100.00;97181.44;5045221;28;20789;-66
2023/02/01 08:41:30;;;;;;;6.07;5.47;;;;;;;1.25;100.00;97182.34;5076496;28;20222;-66
2023/02/01 08:43:58;;;;;;;5.87;5.00;;;;;;;1.32;100.00;97191.31;5072975;28;20459;-64
2023/02/01 08:46:25;;;;;;;6.73;5.87;;;;;;;1.37;100.00;97186.56;5046464;28;20214;-63
2023/02/01 08:48:53;;;;;;;6.50;5.90;;;;;;;1.46;100.00;97173.69;5065650;28;20619;-64
2023/02/01 08:51:22;;;;;;;6.33;5.80;;;;;;;1.48;100.00;97164.78;5022701;28;20226;-65
2023/02/01 08:53:50;;;;;;;6.17;5.60;;;;;;;1.52;100.00;97174.03;5046499;28;20210;-65
2023/02/01 08:56:19;;;;;;;6.90;6.30;;;;;;;1.61;100.00;97179.44;5072268;28;20214;-65
2023/02/01 08:58:48;;;;;;;6.60;6.10;;;;;;;1.73;100.00;97168.81;5065313;28;20207;-62
2023/02/01 09:01:17;;;;;;;7.37;6.67;;;;;;;1.78;100.00;97159.75;5044739;28;20258;-65
2023/02/01 09:03:45;;;;;;;9.33;5.90;;;;;;;1.79;100.00;97164.84;5065043;28;20199;-66
2023/02/01 09:06:15;;;;;;;8.23;5.80;;;;;;;1.90;100.00;97168.34;5020670;28;20209;-63
2023/02/01 09:08:43;;;;;;;7.30;5.77;;;;;;;1.88;100.00;97171.06;5045781;28;20621;-64
2023/02/01 09:11:13;;;;;;;12.23;6.90;;;;;;;1.89;100.00;97180.56;5068759;28;20217;-66
2023/02/01 09:13:41;;;;;;;8.17;5.47;;;;;;;1.93;100.00;97194.22;5065984;28;20244;-64
2023/02/01 09:16:10;;;;;;;6.53;5.10;;;;;;;1.92;100.00;97187.34;5067473;28;20689;-65
2023/02/01 09:18:38;;;;;;;9.17;4.80;;;;;;;1.96;100.00;97197.38;5052917;28;20696;-65
2023/02/01 09:21:22;;;;;;;6.30;5.70;;;;;;;1.99;100.00;97199.72;5021617;28;20706;-65
2023/02/01 09:23:51;;;;;;;7.40;4.70;;;;;;;1.98;100.00;97200.69;5046806;28;20366;-65
2023/02/01 09:26:19;;;;;;;6.37;5.43;;;;;;;1.99;100.00;97191.88;5074371;28;20565;-66
2023/02/01 09:28:56;;;;;;;6.90;4.77;;;;;;;1.98;100.00;97198.06;5062987;28;20201;-66
2023/02/01 09:31:25;;;;;;;4.93;4.30;;;;;;;2.01;100.00;97199.63;5069931;28;20226;-66
2023/02/01 09:33:53;;;;;;;7.30;4.83;;;;;;;2.09;100.00;97198.97;5039225;28;20311;-64
2023/02/01 09:36:21;;;;;;;7.57;4.47;;;;;;;2.23;100.00;97190.78;5067201;28;20228;-65
2023/02/01 09:38:48;;;;;;;4.80;4.47;;;;;;;2.30;100.00;97206.78;4997908;28;20226;-63
2023/02/01 09:41:27;;;;;;;4.77;4.30;;;;;;;2.28;100.00;97195.63;5073073;28;20226;-63
2023/02/01 09:43:59;;;;;;;5.57;4.93;;;;;;;2.24;100.00;97192.44;5063119;28;20401;-66
2023/02/01 09:46:29;;;;;;;5.67;4.23;;;;;;;2.29;100.00;97192.88;5067241;28;20199;-65
2023/02/01 09:49:00;;;;;;;7.90;4.87;;;;;;;2.26;100.00;97192.28;5045525;28;20498;-66
2023/02/01 09:51:32;;;;;;;4.23;3.83;;;;;;;2.31;100.00;97190.13;5071997;28;20414;-65
2023/02/01 09:54:04;;;;;;;6.63;3.87;;;;;;;2.24;100.00;97187.19;5013634;28;20358;-65
2023/02/01 09:56:37;;;;;;;4.63;3.93;;;;;;;2.22;100.00;97190.91;5072418;28;20220;-64
2023/02/01 09:59:10;;;;;;;4.23;3.80;;;;;;;2.20;100.00;97195.44;5070920;28;20731;-63
2023/02/01 10:01:39;;;;;;;6.03;4.03;;;;;;;2.22;100.00;97196.97;5065284;28;20202;-63
2023/02/01 10:04:09;;;;;;;4.10;3.70;;;;;;;2.17;100.00;97209.59;5046691;28;20206;-65
2023/02/01 10:06:52;;;;;;;5.40;3.73;;;;;;;2.21;100.00;97203.16;5068468;28;20230;-64
2023/02/01 10:09:31;;;;;;;8.57;4.47;;;;;;;2.22;100.00;97203.97;5024836;28;20962;-63
2023/02/01 10:12:15;;;;;;;4.90;4.27;;;;;;;2.16;100.00;97210.56;5051181;28;20427;-65
2023/02/01 10:14:58;;;;;;;4.80;4.40;;;;;;;2.01;100.00;97200.44;5062950;28;20643;-64
2023/02/01 10:17:38;;;;;;;6.43;4.10;;;;;;;1.94;100.00;97222.00;5066311;28;20222;-63
2023/02/01 10:20:13;;;;;;;4.83;4.43;;;;;;;2.01;100.00;97217.91;5045940;28;20825;-65
2023/02/01 10:22:43;;;;;;;5.03;4.53;;;;;;;1.86;100.00;97189.47;5025645;28;20391;-67
2023/02/01 10:25:35;;;;;;;5.93;4.20;;;;;;;1.99;100.00;97212.00;5054677;28;20235;-65
2023/02/01 10:28:04;;;;;;;4.70;4.30;;;;;;;1.88;100.00;97226.75;5071242;28;20772;-65
2023/02/01 10:30:38;;;;;;;4.93;4.47;;;;;;;1.79;100.00;97235.38;5071335;28;20211;-65
2023/02/01 10:33:16;;;;;;;5.57;4.80;;;;;;;1.68;100.00;97248.50;5071937;28;20208;-65
2023/02/01 10:35:45;;;;;;;5.57;4.63;;;;;;;1.46;100.00;97263.31;5049491;28;20217;-65
2023/02/01 10:38:20;;;;;;;5.53;4.87;;;;;;;1.10;100.00;97273.13;5023696;28;20229;-66
2023/02/01 10:40:48;;;;;;;5.30;4.80;;;;;;;0.89;100.00;97271.28;5054430;28;20217;-66
2023/02/01 10:43:15;;;;;;;4.27;3.30;;;;;;;0.90;100.00;97266.88;5070267;28;20199;-66
2023/02/01 10:45:43;;;;;;;3.73;3.40;;;;;;;0.96;100.00;97279.47;5067915;28;20213;-67
2023/02/01 10:48:12;;;;;;;5.07;4.00;;;;;;;0.87;100.00;97296.66;5067531;28;20207;-68
2023/02/01 10:50:45;;;;;;;5.13;3.10;;;;;;;0.88;100.00;97266.19;5046496;28;20226;-65
2023/02/01 10:53:18;;;;;;;2.70;2.60;;;;;;;0.95;100.00;97272.59;5072017;28;20609;-67
2023/02/01 10:55:50;;;;;;;2.90;2.70;;;;;;;1.07;100.00;97273.38;5018518;28;20214;-64
2023/02/01 10:58:19;;;;;;;3.70;3.20;;;;;;;1.22;100.00;97259.13;5059758;28;20222;-66
2023/02/01 11:00:49;;;;;;;3.90;3.50;;;;;;;1.27;100.00;97256.97;5066573;28;20227;-63
2023/02/01 11:03:31;;;;;;;4.70;4.00;;;;;;;1.40;100.00;97264.66;5073036;28;20198;-64
2023/02/01 11:05:59;;;;;;;4.57;3.37;;;;;;;1.62;100.00;97255.03;5047110;28;20296;-65
2023/02/01 11:08:27;;;;;;;5.60;3.90;;;;;;;1.80;100.00;97254.50;5062803;28;20403;-64
2023/02/01 11:11:01;;;;;;;6.87;4.43;;;;;;;1.94;100.00;97258.59;5027330;28;20791;-66
2023/02/01 11:13:31;;;;;;;7.40;4.40;;;;;;;1.99;100.00;97257.22;5052879;28;20226;-61
2023/02/01 11:15:59;;;;;;;10.27;4.50;;;;;;;1.91;100.00;97253.63;5064190;28;20209;-63
2023/02/01 11:18:31;;;;;;;5.20;4.10;;;;;;;1.84;100.00;97248.88;5074910;28;20253;-66
2023/02/01 11:20:59;;;;;;;7.90;4.87;;;;;;;1.84;100.00;97248.88;5068818;28;20218;-65
2023/02/01 11:23:28;;;;;;;4.77;4.20;;;;;;;1.92;100.00;97244.81;5043304;28;20207;-66
2023/02/01 11:25:57;;;;;;;4.57;4.17;;;;;;;2.18;100.00;97234.78;5023464;28;20222;-66
2023/02/01 11:28:27;;;;;;;7.43;4.50;;;;;;;2.46;100.00;97225.41;5053919;28;20547;-66
2023/02/01 11:30:57;;;;;;;6.90;5.00;;;;;;;2.62;100.00;97210.19;5064220;28;21179;-66
2023/02/01 11:33:34;;;;;;;7.70;4.53;;;;;;;2.87;100.00;97214.94;5068852;28;20197;-64
2023/02/01 11:36:08;;;;;;;10.20;4.67;;;;;;;3.31;100.00;97206.72;5068752;28;20292;-65
2023/02/01 11:38:35;;;;;;;11.00;4.97;;;;;;;3.28;100.00;97201.75;5043710;28;20309;-63
2023/02/01 11:41:14;;;;;;;6.07;4.50;;;;;;;3.28;100.00;97196.50;5019367;28;21627;-64
2023/02/01 11:43:56;;;;;;;7.63;4.43;;;;;;;3.23;100.00;97195.28;5049767;28;20222;-64
2023/02/01 11:46:27;;;;;;;6.53;4.83;;;;;;;3.18;100.00;97190.44;5070082;28;20194;-65
2023/02/01 11:48:57;;;;;;;5.83;4.63;;;;;;;3.07;100.00;97170.47;5069637;28;20214;-64
2023/02/01 11:51:35;;;;;;;6.83;3.50;;;;;;;3.28;100.00;97178.19;5072491;28;20226;-65
2023/02/01 11:54:28;;;;;;;6.40;3.40;;;;;;;3.45;100.00;97160.13;5046707;28;20300;-65
2023/02/01 11:57:07;;;;;;;8.80;4.43;;;;;;;3.58;100.00;97159.81;5022376;28;20862;-64
2023/02/01 12:00:00;;;;;;;7.53;4.87;;;;;;;3.45;100.00;97154.88;5045690;28;20221;-63
2023/02/01 12:02:48;;;;;;;4.20;3.77;;;;;;;3.55;100.00;97132.13;5071696;28;20673;-64
2023/02/01 12:05:25;;;;;;;4.47;3.40;;;;;;;3.35;100.00;97140.97;5073057;28;20210;-66
2023/02/01 12:08:05;;;;;;;6.97;3.50;;;;;;;3.38;100.00;97135.44;5041145;28;20711;-65
2023/02/01 12:10:42;;;;;;;8.20;3.60;;;;;;;3.48;100.00;97126.59;5067508;28;20230;-64
2023/02/01 12:13:18;;;;;;;3.27;2.80;;;;;;;3.52;100.00;97123.69;5025397;28;20497;-67
2023/02/01 12:15:53;;;;;;;6.03;3.80;;;;;;;3.53;100.00;97120.13;5044085;28;20232;-65